sensor_id;sensor_type;location;lat;lon;timestamp;temperature;humidity
76305;DHT22;65111;50.536;19.204;2023-04-10T00:02:21;7.60;88.70
76305;DHT22;65111;50.536;19.204;2023-04-10T00:04:48;7.70;88.60
76305;DHT22;65111;50.536;19.204;2023-04-10T00:07:14;7.70;88.80
76305;DHT22;65111;50.536;19.204;2023-04-10T00:09:40;7.80;88.70
76305;DHT22;65111;50.536;19.204;2023-04-10T00:12:06;7.60;88.90
76305;DHT22;65111;50.536;19.204;2023-04-10T00:14:32;7.70;89.00
76305;DHT22;65111;50.536;19.204;2023-04-10T00:16:58;7.70;89.10
76305;DHT22;65111;50.536;19.204;2023-04-10T00:19:25;7.60;89.10
76305;DHT22;65111;50.536;19.204;2023-04-10T00:21:51;7.90;89.00
76305;DHT22;65111;50.536;19.204;2023-04-10T00:24:17;7.90;89.00
76305;DHT22;65111;50.536;19.204;2023-04-10T00:26:43;7.90;89.00
76305;DHT22;65111;50.536;19.204;2023-04-10T00:29:09;7.90;89.20
76305;DHT22;65111;50.536;19.204;2023-04-10T00:31:35;7.90;89.20
76305;DHT22;65111;50.536;19.204;2023-04-10T00:34:01;7.80;88.90
76305;DHT22;65111;50.536;19.204;2023-04-10T00:36:27;7.80;88.70
76305;DHT22;65111;50.536;19.204;2023-04-10T00:38:53;7.80;88.90
76305;DHT22;65111;50.536;19.204;2023-04-10T00:41:19;7.70;88.90
76305;DHT22;65111;50.536;19.204;2023-04-10T00:43:45;7.60;89.00
76305;DHT22;65111;50.536;19.204;2023-04-10T00:46:12;7.60;89.00
76305;DHT22;65111;50.536;19.204;2023-04-10T00:48:38;7.50;89.10
76305;DHT22;65111;50.536;19.204;2023-04-10T00:51:05;7.30;89.20
76305;DHT22;65111;50.536;19.204;2023-04-10T00:53:31;7.40;89.20
76305;DHT22;65111;50.536;19.204;2023-04-10T00:55:58;7.30;89.30
76305;DHT22;65111;50.536;19.204;2023-04-10T00:58:25;7.40;89.30
76305;DHT22;65111;50.536;19.204;2023-04-10T01:00:51;7.40;89.20
76305;DHT22;65111;50.536;19.204;2023-04-10T01:03:18;7.40;89.30
76305;DHT22;65111;50.536;19.204;2023-04-10T01:08:38;7.40;89.50
76305;DHT22;65111;50.536;19.204;2023-04-10T01:11:17;7.40;89.60
76305;DHT22;65111;50.536;19.204;2023-04-10T01:13:47;7.40;89.70
76305;DHT22;65111;50.536;19.204;2023-04-10T01:16:24;7.50;89.70
76305;DHT22;65111;50.536;19.204;2023-04-10T01:19:21;7.50;89.70
76305;DHT22;65111;50.536;19.204;2023-04-10T01:21:52;7.60;89.80
76305;DHT22;65111;50.536;19.204;2023-04-10T01:27:53;7.70;89.80
76305;DHT22;65111;50.536;19.204;2023-04-10T01:30:27;7.60;89.80
76305;DHT22;65111;50.536;19.204;2023-04-10T01:32:56;7.60;89.80
76305;DHT22;65111;50.536;19.204;2023-04-10T01:35:25;7.70;89.80
76305;DHT22;65111;50.536;19.204;2023-04-10T01:37:55;7.70;89.90
76305;DHT22;65111;50.536;19.204;2023-04-10T01:40:24;7.80;89.70
76305;DHT22;65111;50.536;19.204;2023-04-10T01:42:54;7.80;89.70
76305;DHT22;65111;50.536;19.204;2023-04-10T01:45:27;7.70;89.70
76305;DHT22;65111;50.536;19.204;2023-04-10T01:47:54;7.90;89.80
76305;DHT22;65111;50.536;19.204;2023-04-10T01:50:21;7.80;89.80
76305;DHT22;65111;50.536;19.204;2023-04-10T01:52:51;7.80;89.70
76305;DHT22;65111;50.536;19.204;2023-04-10T01:55:21;7.90;89.70
76305;DHT22;65111;50.536;19.204;2023-04-10T01:57:48;7.70;89.80
76305;DHT22;65111;50.536;19.204;2023-04-10T02:00:15;7.90;89.80
76305;DHT22;65111;50.536;19.204;2023-04-10T02:02:42;7.80;89.80
76305;DHT22;65111;50.536;19.204;2023-04-10T02:05:09;8.00;89.70
76305;DHT22;65111;50.536;19.204;2023-04-10T02:10:34;8.00;89.60
76305;DHT22;65111;50.536;19.204;2023-04-10T02:13:06;8.00;89.70
76305;DHT22;65111;50.536;19.204;2023-04-10T02:15:33;8.10;89.60
76305;DHT22;65111;50.536;19.204;2023-04-10T02:18:02;7.90;89.50
76305;DHT22;65111;50.536;19.204;2023-04-10T02:20:33;8.00;89.50
76305;DHT22;65111;50.536;19.204;2023-04-10T02:22:59;7.90;89.40
76305;DHT22;65111;50.536;19.204;2023-04-10T02:25:31;8.00;89.40
76305;DHT22;65111;50.536;19.204;2023-04-10T02:28:03;8.00;89.40
76305;DHT22;65111;50.536;19.204;2023-04-10T02:30:29;7.90;89.40
76305;DHT22;65111;50.536;19.204;2023-04-10T02:32:56;8.00;89.40
76305;DHT22;65111;50.536;19.204;2023-04-10T02:35:22;7.90;89.40
76305;DHT22;65111;50.536;19.204;2023-04-10T02:37:48;7.80;89.40
76305;DHT22;65111;50.536;19.204;2023-04-10T02:40:15;7.90;89.30
76305;DHT22;65111;50.536;19.204;2023-04-10T02:42:41;7.90;89.30
76305;DHT22;65111;50.536;19.204;2023-04-10T02:45:08;7.90;89.20
76305;DHT22;65111;50.536;19.204;2023-04-10T02:47:35;7.90;89.30
76305;DHT22;65111;50.536;19.204;2023-04-10T02:50:01;7.70;89.40
76305;DHT22;65111;50.536;19.204;2023-04-10T02:52:27;7.70;89.40
76305;DHT22;65111;50.536;19.204;2023-04-10T02:54:53;7.80;89.40
76305;DHT22;65111;50.536;19.204;2023-04-10T02:57:20;7.60;89.40
76305;DHT22;65111;50.536;19.204;2023-04-10T02:59:49;7.70;89.50
76305;DHT22;65111;50.536;19.204;2023-04-10T03:02:16;7.60;89.40
76305;DHT22;65111;50.536;19.204;2023-04-10T03:04:42;7.70;89.50
76305;DHT22;65111;50.536;19.204;2023-04-10T03:07:08;7.60;89.40
76305;DHT22;65111;50.536;19.204;2023-04-10T03:09:35;7.70;89.50
76305;DHT22;65111;50.536;19.204;2023-04-10T03:12:01;7.70;89.50
76305;DHT22;65111;50.536;19.204;2023-04-10T03:14:27;7.70;89.50
76305;DHT22;65111;50.536;19.204;2023-04-10T03:16:53;7.60;89.70
76305;DHT22;65111;50.536;19.204;2023-04-10T03:19:19;7.50;89.70
76305;DHT22;65111;50.536;19.204;2023-04-10T03:21:45;7.70;89.70
76305;DHT22;65111;50.536;19.204;2023-04-10T03:24:12;7.70;89.70
76305;DHT22;65111;50.536;19.204;2023-04-10T03:26:38;7.70;89.70
76305;DHT22;65111;50.536;19.204;2023-04-10T03:29:04;7.70;89.60
76305;DHT22;65111;50.536;19.204;2023-04-10T03:31:30;7.70;89.70
76305;DHT22;65111;50.536;19.204;2023-04-10T03:33:56;7.60;89.70
76305;DHT22;65111;50.536;19.204;2023-04-10T03:36:22;7.60;89.90
76305;DHT22;65111;50.536;19.204;2023-04-10T03:38:48;7.60;89.70
76305;DHT22;65111;50.536;19.204;2023-04-10T03:41:15;7.70;89.90
76305;DHT22;65111;50.536;19.204;2023-04-10T03:43:41;7.60;89.80
76305;DHT22;65111;50.536;19.204;2023-04-10T03:46:07;7.60;89.80
76305;DHT22;65111;50.536;19.204;2023-04-10T03:48:33;7.60;89.80
76305;DHT22;65111;50.536;19.204;2023-04-10T03:50:59;7.60;89.80
76305;DHT22;65111;50.536;19.204;2023-04-10T03:53:25;7.50;89.90
76305;DHT22;65111;50.536;19.204;2023-04-10T03:55:51;7.60;89.90
76305;DHT22;65111;50.536;19.204;2023-04-10T03:58:18;7.50;89.90
76305;DHT22;65111;50.536;19.204;2023-04-10T04:00:45;7.60;89.90
76305;DHT22;65111;50.536;19.204;2023-04-10T04:03:11;7.60;89.90
76305;DHT22;65111;50.536;19.204;2023-04-10T04:05:37;7.70;89.90
76305;DHT22;65111;50.536;19.204;2023-04-10T04:08:03;7.60;90.00
76305;DHT22;65111;50.536;19.204;2023-04-10T04:10:32;7.50;90.10
76305;DHT22;65111;50.536;19.204;2023-04-10T04:12:58;7.60;90.10
76305;DHT22;65111;50.536;19.204;2023-04-10T04:15:24;7.60;90.10
76305;DHT22;65111;50.536;19.204;2023-04-10T04:17:50;7.60;90.10
76305;DHT22;65111;50.536;19.204;2023-04-10T04:20:16;7.60;90.10
76305;DHT22;65111;50.536;19.204;2023-04-10T04:22:43;7.60;90.10
76305;DHT22;65111;50.536;19.204;2023-04-10T04:25:09;7.70;90.10
76305;DHT22;65111;50.536;19.204;2023-04-10T04:27:36;7.70;90.10
76305;DHT22;65111;50.536;19.204;2023-04-10T04:30:04;7.70;90.10
76305;DHT22;65111;50.536;19.204;2023-04-10T04:32:31;7.60;90.10
76305;DHT22;65111;50.536;19.204;2023-04-10T04:34:57;7.70;90.10
76305;DHT22;65111;50.536;19.204;2023-04-10T04:37:23;7.70;90.10
76305;DHT22;65111;50.536;19.204;2023-04-10T04:39:49;7.60;90.20
76305;DHT22;65111;50.536;19.204;2023-04-10T04:42:15;7.70;90.20
76305;DHT22;65111;50.536;19.204;2023-04-10T04:44:41;7.80;90.20
76305;DHT22;65111;50.536;19.204;2023-04-10T04:47:08;7.70;90.20
76305;DHT22;65111;50.536;19.204;2023-04-10T04:49:35;7.80;90.20
76305;DHT22;65111;50.536;19.204;2023-04-10T04:52:01;7.80;90.20
76305;DHT22;65111;50.536;19.204;2023-04-10T04:54:27;8.00;90.10
76305;DHT22;65111;50.536;19.204;2023-04-10T04:56:53;8.00;90.20
76305;DHT22;65111;50.536;19.204;2023-04-10T04:59:19;7.90;90.30
76305;DHT22;65111;50.536;19.204;2023-04-10T05:01:45;8.00;90.20
76305;DHT22;65111;50.536;19.204;2023-04-10T05:04:11;8.10;90.10
76305;DHT22;65111;50.536;19.204;2023-04-10T05:06:37;8.10;90.10
76305;DHT22;65111;50.536;19.204;2023-04-10T05:09:03;8.30;90.00
76305;DHT22;65111;50.536;19.204;2023-04-10T05:11:30;8.30;90.00
76305;DHT22;65111;50.536;19.204;2023-04-10T05:13:56;8.40;89.90
76305;DHT22;65111;50.536;19.204;2023-04-10T05:16:22;8.40;89.90
76305;DHT22;65111;50.536;19.204;2023-04-10T05:18:48;8.40;89.90
76305;DHT22;65111;50.536;19.204;2023-04-10T05:21:14;8.50;89.80
76305;DHT22;65111;50.536;19.204;2023-04-10T05:23:40;8.40;89.80
76305;DHT22;65111;50.536;19.204;2023-04-10T05:26:06;8.40;89.80
76305;DHT22;65111;50.536;19.204;2023-04-10T05:28:32;8.40;89.70
76305;DHT22;65111;50.536;19.204;2023-04-10T05:30:59;8.40;89.80
76305;DHT22;65111;50.536;19.204;2023-04-10T05:33:25;8.40;89.80
76305;DHT22;65111;50.536;19.204;2023-04-10T05:35:51;8.40;89.80
76305;DHT22;65111;50.536;19.204;2023-04-10T05:38:18;8.40;89.80
76305;DHT22;65111;50.536;19.204;2023-04-10T05:40:44;8.30;89.70
76305;DHT22;65111;50.536;19.204;2023-04-10T05:43:10;8.30;89.90
76305;DHT22;65111;50.536;19.204;2023-04-10T05:45:36;8.30;89.90
76305;DHT22;65111;50.536;19.204;2023-04-10T05:48:02;8.50;89.90
76305;DHT22;65111;50.536;19.204;2023-04-10T05:50:28;8.30;89.90
76305;DHT22;65111;50.536;19.204;2023-04-10T05:52:54;8.30;89.90
76305;DHT22;65111;50.536;19.204;2023-04-10T05:55:20;8.30;90.00
76305;DHT22;65111;50.536;19.204;2023-04-10T05:57:46;8.40;90.10
76305;DHT22;65111;50.536;19.204;2023-04-10T06:00:13;8.40;90.00
76305;DHT22;65111;50.536;19.204;2023-04-10T06:02:41;8.40;90.10
76305;DHT22;65111;50.536;19.204;2023-04-10T06:05:07;8.50;90.20
76305;DHT22;65111;50.536;19.204;2023-04-10T06:07:33;8.40;90.20
76305;DHT22;65111;50.536;19.204;2023-04-10T06:09:59;8.60;90.30
76305;DHT22;65111;50.536;19.204;2023-04-10T06:12:25;8.70;90.20
76305;DHT22;65111;50.536;19.204;2023-04-10T06:14:51;8.90;90.10
76305;DHT22;65111;50.536;19.204;2023-04-10T06:17:18;9.00;90.10
76305;DHT22;65111;50.536;19.204;2023-04-10T06:19:45;9.10;89.90
76305;DHT22;65111;50.536;19.204;2023-04-10T06:22:12;9.30;89.90
76305;DHT22;65111;50.536;19.204;2023-04-10T06:24:38;9.40;89.60
76305;DHT22;65111;50.536;19.204;2023-04-10T06:27:04;9.50;89.40
76305;DHT22;65111;50.536;19.204;2023-04-10T06:29:30;9.70;89.30
76305;DHT22;65111;50.536;19.204;2023-04-10T06:31:56;9.70;89.10
76305;DHT22;65111;50.536;19.204;2023-04-10T06:34:22;9.80;88.90
76305;DHT22;65111;50.536;19.204;2023-04-10T06:36:48;10.00;88.60
76305;DHT22;65111;50.536;19.204;2023-04-10T06:39:15;10.10;88.40
76305;DHT22;65111;50.536;19.204;2023-04-10T06:41:42;10.10;88.10
76305;DHT22;65111;50.536;19.204;2023-04-10T06:44:08;10.20;88.00
76305;DHT22;65111;50.536;19.204;2023-04-10T06:46:34;10.20;88.10
76305;DHT22;65111;50.536;19.204;2023-04-10T06:49:00;10.30;88.10
76305;DHT22;65111;50.536;19.204;2023-04-10T06:51:26;10.40;87.90
76305;DHT22;65111;50.536;19.204;2023-04-10T06:53:52;10.60;87.70
76305;DHT22;65111;50.536;19.204;2023-04-10T06:56:18;10.70;87.30
76305;DHT22;65111;50.536;19.204;2023-04-10T06:58:44;10.70;87.10
76305;DHT22;65111;50.536;19.204;2023-04-10T07:01:10;10.90;86.80
76305;DHT22;65111;50.536;19.204;2023-04-10T07:03:36;10.90;86.60
76305;DHT22;65111;50.536;19.204;2023-04-10T07:06:03;10.90;86.50
76305;DHT22;65111;50.536;19.204;2023-04-10T07:08:29;10.90;86.30
76305;DHT22;65111;50.536;19.204;2023-04-10T07:10:55;10.90;86.30
76305;DHT22;65111;50.536;19.204;2023-04-10T07:13:21;10.90;86.20
76305;DHT22;65111;50.536;19.204;2023-04-10T07:15:47;10.80;86.20
76305;DHT22;65111;50.536;19.204;2023-04-10T07:18:14;10.70;86.20
76305;DHT22;65111;50.536;19.204;2023-04-10T07:20:40;10.70;86.10
76305;DHT22;65111;50.536;19.204;2023-04-10T07:23:06;10.60;86.20
76305;DHT22;65111;50.536;19.204;2023-04-10T07:25:33;10.70;86.40
76305;DHT22;65111;50.536;19.204;2023-04-10T07:27:59;10.70;86.40
76305;DHT22;65111;50.536;19.204;2023-04-10T07:30:25;10.80;86.40
76305;DHT22;65111;50.536;19.204;2023-04-10T07:32:51;11.00;86.20
76305;DHT22;65111;50.536;19.204;2023-04-10T07:35:17;11.10;86.10
76305;DHT22;65111;50.536;19.204;2023-04-10T07:37:44;11.20;86.00
76305;DHT22;65111;50.536;19.204;2023-04-10T07:40:15;11.40;85.70
76305;DHT22;65111;50.536;19.204;2023-04-10T07:42:41;11.60;85.40
76305;DHT22;65111;50.536;19.204;2023-04-10T07:45:07;11.80;85.10
76305;DHT22;65111;50.536;19.204;2023-04-10T07:47:33;11.90;84.40
76305;DHT22;65111;50.536;19.204;2023-04-10T07:50:00;12.00;84.40
76305;DHT22;65111;50.536;19.204;2023-04-10T07:52:26;12.00;84.40
76305;DHT22;65111;50.536;19.204;2023-04-10T07:54:52;12.20;84.20
76305;DHT22;65111;50.536;19.204;2023-04-10T07:57:18;12.30;83.80
76305;DHT22;65111;50.536;19.204;2023-04-10T07:59:44;12.30;83.80
76305;DHT22;65111;50.536;19.204;2023-04-10T08:02:11;12.20;83.70
76305;DHT22;65111;50.536;19.204;2023-04-10T08:04:37;12.40;83.60
76305;DHT22;65111;50.536;19.204;2023-04-10T08:07:03;12.30;83.50
76305;DHT22;65111;50.536;19.204;2023-04-10T08:09:29;12.40;83.50
76305;DHT22;65111;50.536;19.204;2023-04-10T08:11:55;12.50;83.60
76305;DHT22;65111;50.536;19.204;2023-04-10T08:14:22;12.60;83.20
76305;DHT22;65111;50.536;19.204;2023-04-10T08:16:48;12.80;82.60
76305;DHT22;65111;50.536;19.204;2023-04-10T08:19:14;13.20;82.50
76305;DHT22;65111;50.536;19.204;2023-04-10T08:21:40;13.40;82.00
76305;DHT22;65111;50.536;19.204;2023-04-10T08:24:06;13.70;81.20
76305;DHT22;65111;50.536;19.204;2023-04-10T08:26:32;13.80;80.20
76305;DHT22;65111;50.536;19.204;2023-04-10T08:28:59;13.90;79.90
76305;DHT22;65111;50.536;19.204;2023-04-10T08:31:26;13.80;79.90
76305;DHT22;65111;50.536;19.204;2023-04-10T08:33:53;13.70;79.80
76305;DHT22;65111;50.536;19.204;2023-04-10T08:36:19;13.60;79.60
76305;DHT22;65111;50.536;19.204;2023-04-10T08:38:46;13.50;79.60
76305;DHT22;65111;50.536;19.204;2023-04-10T08:41:13;13.30;79.50
76305;DHT22;65111;50.536;19.204;2023-04-10T08:43:40;13.30;79.80
76305;DHT22;65111;50.536;19.204;2023-04-10T08:46:08;13.20;80.00
76305;DHT22;65111;50.536;19.204;2023-04-10T08:51:32;13.30;80.10
76305;DHT22;65111;50.536;19.204;2023-04-10T08:54:06;13.40;80.00
76305;DHT22;65111;50.536;19.204;2023-04-10T08:56:33;13.50;80.20
76305;DHT22;65111;50.536;19.204;2023-04-10T08:59:03;13.70;79.90
76305;DHT22;65111;50.536;19.204;2023-04-10T09:01:29;13.90;79.80
76305;DHT22;65111;50.536;19.204;2023-04-10T09:03:56;14.30;79.40
76305;DHT22;65111;50.536;19.204;2023-04-10T09:06:23;14.50;78.60
76305;DHT22;65111;50.536;19.204;2023-04-10T09:08:49;14.80;77.70
76305;DHT22;65111;50.536;19.204;2023-04-10T09:11:15;14.90;77.20
76305;DHT22;65111;50.536;19.204;2023-04-10T09:13:42;14.90;77.10
76305;DHT22;65111;50.536;19.204;2023-04-10T09:16:12;14.90;76.50
76305;DHT22;65111;50.536;19.204;2023-04-10T09:18:49;14.80;76.30
76305;DHT22;65111;50.536;19.204;2023-04-10T09:21:18;14.80;76.60
76305;DHT22;65111;50.536;19.204;2023-04-10T09:23:45;14.90;76.50
76305;DHT22;65111;50.536;19.204;2023-04-10T09:26:31;14.90;76.70
76305;DHT22;65111;50.536;19.204;2023-04-10T09:29:03;15.20;76.30
76305;DHT22;65111;50.536;19.204;2023-04-10T09:31:33;15.40;75.40
76305;DHT22;65111;50.536;19.204;2023-04-10T09:34:13;15.50;74.50
76305;DHT22;65111;50.536;19.204;2023-04-10T09:36:41;15.60;74.30
76305;DHT22;65111;50.536;19.204;2023-04-10T09:39:09;16.00;73.90
76305;DHT22;65111;50.536;19.204;2023-04-10T09:41:53;16.40;73.20
76305;DHT22;65111;50.536;19.204;2023-04-10T09:44:30;16.90;71.20
76305;DHT22;65111;50.536;19.204;2023-04-10T09:46:57;17.40;69.40
76305;DHT22;65111;50.536;19.204;2023-04-10T09:49:24;17.60;68.30
76305;DHT22;65111;50.536;19.204;2023-04-10T09:51:50;17.60;68.00
76305;DHT22;65111;50.536;19.204;2023-04-10T09:54:16;17.40;67.90
76305;DHT22;65111;50.536;19.204;2023-04-10T09:56:44;17.60;68.40
76305;DHT22;65111;50.536;19.204;2023-04-10T09:59:12;17.90;67.60
76305;DHT22;65111;50.536;19.204;2023-04-10T10:01:38;18.10;66.60
76305;DHT22;65111;50.536;19.204;2023-04-10T10:04:05;18.10;66.60
76305;DHT22;65111;50.536;19.204;2023-04-10T10:06:32;18.00;66.40
76305;DHT22;65111;50.536;19.204;2023-04-10T10:09:02;18.20;65.60
76305;DHT22;65111;50.536;19.204;2023-04-10T10:11:31;18.60;65.20
76305;DHT22;65111;50.536;19.204;2023-04-10T10:14:02;19.00;63.70
76305;DHT22;65111;50.536;19.204;2023-04-10T10:17:00;19.10;62.40
76305;DHT22;65111;50.536;19.204;2023-04-10T10:19:41;19.40;63.10
76305;DHT22;65111;50.536;19.204;2023-04-10T10:22:10;19.60;62.30
76305;DHT22;65111;50.536;19.204;2023-04-10T10:24:38;19.80;62.00
76305;DHT22;65111;50.536;19.204;2023-04-10T10:27:08;20.00;60.90
76305;DHT22;65111;50.536;19.204;2023-04-10T10:29:36;20.20;60.40
76305;DHT22;65111;50.536;19.204;2023-04-10T10:32:05;20.30;59.70
76305;DHT22;65111;50.536;19.204;2023-04-10T10:34:34;20.20;59.10
76305;DHT22;65111;50.536;19.204;2023-04-10T10:37:01;20.40;59.20
76305;DHT22;65111;50.536;19.204;2023-04-10T10:39:49;20.70;58.10
76305;DHT22;65111;50.536;19.204;2023-04-10T10:45:33;23.30;55.40
76305;DHT22;65111;50.536;19.204;2023-04-10T10:48:01;25.20;52.30
76305;DHT22;65111;50.536;19.204;2023-04-10T10:50:51;27.90;48.90
76305;DHT22;65111;50.536;19.204;2023-04-10T10:55:58;33.80;40.00
76305;DHT22;65111;50.536;19.204;2023-04-10T10:58:48;34.30;37.60
76305;DHT22;65111;50.536;19.204;2023-04-10T11:01:14;33.30;37.90
76305;DHT22;65111;50.536;19.204;2023-04-10T11:03:41;31.50;38.00
76305;DHT22;65111;50.536;19.204;2023-04-10T11:06:11;29.30;39.30
76305;DHT22;65111;50.536;19.204;2023-04-10T11:08:39;27.90;40.90
76305;DHT22;65111;50.536;19.204;2023-04-10T11:11:12;27.10;42.00
76305;DHT22;65111;50.536;19.204;2023-04-10T11:16:22;26.20;43.80
76305;DHT22;65111;50.536;19.204;2023-04-10T11:21:19;25.00;44.80
76305;DHT22;65111;50.536;19.204;2023-04-10T11:29:01;25.00;45.40
76305;DHT22;65111;50.536;19.204;2023-04-10T11:31:28;26.70;44.60
76305;DHT22;65111;50.536;19.204;2023-04-10T11:34:07;29.70;41.40
76305;DHT22;65111;50.536;19.204;2023-04-10T11:36:39;32.40;38.10
76305;DHT22;65111;50.536;19.204;2023-04-10T11:39:08;32.60;37.20
76305;DHT22;65111;50.536;19.204;2023-04-10T11:41:37;31.30;36.50
76305;DHT22;65111;50.536;19.204;2023-04-10T11:44:06;29.50;38.00
76305;DHT22;65111;50.536;19.204;2023-04-10T11:46:39;28.90;39.10
76305;DHT22;65111;50.536;19.204;2023-04-10T11:49:07;29.00;39.40
76305;DHT22;65111;50.536;19.204;2023-04-10T11:51:39;28.80;39.70
76305;DHT22;65111;50.536;19.204;2023-04-10T11:54:24;28.40;39.80
76305;DHT22;65111;50.536;19.204;2023-04-10T11:57:05;27.90;40.60
76305;DHT22;65111;50.536;19.204;2023-04-10T11:59:34;27.40;41.10
76305;DHT22;65111;50.536;19.204;2023-04-10T12:02:18;26.90;41.60
76305;DHT22;65111;50.536;19.204;2023-04-10T12:04:44;26.80;41.70
76305;DHT22;65111;50.536;19.204;2023-04-10T12:07:11;27.10;41.20
76305;DHT22;65111;50.536;19.204;2023-04-10T12:09:37;27.20;41.10
76305;DHT22;65111;50.536;19.204;2023-04-10T12:12:05;27.10;40.70
76305;DHT22;65111;50.536;19.204;2023-04-10T12:14:35;26.70;41.60
76305;DHT22;65111;50.536;19.204;2023-04-10T12:17:05;26.20;42.00
76305;DHT22;65111;50.536;19.204;2023-04-10T12:19:33;25.70;42.60
76305;DHT22;65111;50.536;19.204;2023-04-10T12:22:00;25.10;41.70
76305;DHT22;65111;50.536;19.204;2023-04-10T12:24:50;24.50;42.40
76305;DHT22;65111;50.536;19.204;2023-04-10T12:27:23;23.90;43.10
76305;DHT22;65111;50.536;19.204;2023-04-10T12:29:54;23.60;44.00
76305;DHT22;65111;50.536;19.204;2023-04-10T12:32:21;23.60;44.40
76305;DHT22;65111;50.536;19.204;2023-04-10T12:34:55;23.70;44.70
76305;DHT22;65111;50.536;19.204;2023-04-10T12:37:51;23.70;44.80
76305;DHT22;65111;50.536;19.204;2023-04-10T12:40:19;23.80;44.80
76305;DHT22;65111;50.536;19.204;2023-04-10T12:42:45;23.60;44.80
76305;DHT22;65111;50.536;19.204;2023-04-10T12:45:12;23.30;45.60
76305;DHT22;65111;50.536;19.204;2023-04-10T12:47:47;23.00;45.90
76305;DHT22;65111;50.536;19.204;2023-04-10T12:50:17;22.60;46.80
76305;DHT22;65111;50.536;19.204;2023-04-10T12:52:46;22.30;47.00
76305;DHT22;65111;50.536;19.204;2023-04-10T12:55:26;22.10;47.30
76305;DHT22;65111;50.536;19.204;2023-04-10T12:57:53;22.00;47.60
76305;DHT22;65111;50.536;19.204;2023-04-10T13:00:21;22.00;47.40
76305;DHT22;65111;50.536;19.204;2023-04-10T13:02:47;22.10;47.50
76305;DHT22;65111;50.536;19.204;2023-04-10T13:05:14;22.50;46.60
76305;DHT22;65111;50.536;19.204;2023-04-10T13:07:40;22.80;46.50
76305;DHT22;65111;50.536;19.204;2023-04-10T13:10:07;23.00;46.30
76305;DHT22;65111;50.536;19.204;2023-04-10T13:12:34;23.20;46.30
76305;DHT22;65111;50.536;19.204;2023-04-10T13:15:02;23.20;46.10
76305;DHT22;65111;50.536;19.204;2023-04-10T13:17:28;23.00;46.00
76305;DHT22;65111;50.536;19.204;2023-04-10T13:19:54;22.70;46.60
76305;DHT22;65111;50.536;19.204;2023-04-10T13:22:20;22.20;47.20
76305;DHT22;65111;50.536;19.204;2023-04-10T13:24:46;21.80;47.80
76305;DHT22;65111;50.536;19.204;2023-04-10T13:27:12;21.50;48.30
76305;DHT22;65111;50.536;19.204;2023-04-10T13:29:40;21.20;48.70
76305;DHT22;65111;50.536;19.204;2023-04-10T13:32:06;20.80;49.50
76305;DHT22;65111;50.536;19.204;2023-04-10T13:34:33;20.40;49.80
76305;DHT22;65111;50.536;19.204;2023-04-10T13:36:59;20.10;50.10
76305;DHT22;65111;50.536;19.204;2023-04-10T13:39:28;19.80;50.60
76305;DHT22;65111;50.536;19.204;2023-04-10T13:41:54;19.60;50.60
76305;DHT22;65111;50.536;19.204;2023-04-10T13:44:21;19.30;51.40
76305;DHT22;65111;50.536;19.204;2023-04-10T13:46:47;19.10;52.00
76305;DHT22;65111;50.536;19.204;2023-04-10T13:49:13;18.90;52.20
76305;DHT22;65111;50.536;19.204;2023-04-10T13:51:43;18.70;52.30
76305;DHT22;65111;50.536;19.204;2023-04-10T13:54:10;18.40;52.60
76305;DHT22;65111;50.536;19.204;2023-04-10T13:56:36;17.90;53.50
76305;DHT22;65111;50.536;19.204;2023-04-10T13:59:03;17.60;53.90
76305;DHT22;65111;50.536;19.204;2023-04-10T14:01:30;17.50;54.20
76305;DHT22;65111;50.536;19.204;2023-04-10T14:03:56;17.30;54.40
76305;DHT22;65111;50.536;19.204;2023-04-10T14:06:22;17.30;54.70
76305;DHT22;65111;50.536;19.204;2023-04-10T14:08:48;17.20;55.00
76305;DHT22;65111;50.536;19.204;2023-04-10T14:11:15;17.30;55.10
76305;DHT22;65111;50.536;19.204;2023-04-10T14:13:41;17.20;55.00
76305;DHT22;65111;50.536;19.204;2023-04-10T14:16:07;17.40;54.90
76305;DHT22;65111;50.536;19.204;2023-04-10T14:18:35;17.60;54.40
76305;DHT22;65111;50.536;19.204;2023-04-10T14:21:02;17.50;53.80
76305;DHT22;65111;50.536;19.204;2023-04-10T14:23:28;17.70;53.70
76305;DHT22;65111;50.536;19.204;2023-04-10T14:25:55;18.00;53.50
76305;DHT22;65111;50.536;19.204;2023-04-10T14:28:21;18.20;52.30
76305;DHT22;65111;50.536;19.204;2023-04-10T14:30:49;18.40;52.30
76305;DHT22;65111;50.536;19.204;2023-04-10T14:33:16;18.70;52.50
76305;DHT22;65111;50.536;19.204;2023-04-10T14:35:43;19.00;52.40
76305;DHT22;65111;50.536;19.204;2023-04-10T14:38:09;19.10;52.10
76305;DHT22;65111;50.536;19.204;2023-04-10T14:40:36;19.10;51.70
76305;DHT22;65111;50.536;19.204;2023-04-10T14:43:02;18.90;51.90
76305;DHT22;65111;50.536;19.204;2023-04-10T14:45:28;18.80;52.40
76305;DHT22;65111;50.536;19.204;2023-04-10T14:47:55;18.50;53.10
76305;DHT22;65111;50.536;19.204;2023-04-10T14:50:21;18.30;53.40
76305;DHT22;65111;50.536;19.204;2023-04-10T14:52:47;18.20;53.60
76305;DHT22;65111;50.536;19.204;2023-04-10T14:55:14;18.10;54.30
76305;DHT22;65111;50.536;19.204;2023-04-10T14:57:40;18.00;54.60
76305;DHT22;65111;50.536;19.204;2023-04-10T15:00:06;18.00;54.80
76305;DHT22;65111;50.536;19.204;2023-04-10T15:02:33;18.30;54.20
76305;DHT22;65111;50.536;19.204;2023-04-10T15:04:59;18.40;54.20
76305;DHT22;65111;50.536;19.204;2023-04-10T15:07:25;18.70;53.80
76305;DHT22;65111;50.536;19.204;2023-04-10T15:09:56;18.90;53.60
76305;DHT22;65111;50.536;19.204;2023-04-10T15:12:23;19.20;53.00
76305;DHT22;65111;50.536;19.204;2023-04-10T15:14:52;19.40;52.90
76305;DHT22;65111;50.536;19.204;2023-04-10T15:17:21;19.40;51.60
76305;DHT22;65111;50.536;19.204;2023-04-10T15:19:47;19.40;51.50
76305;DHT22;65111;50.536;19.204;2023-04-10T15:22:13;19.20;51.80
76305;DHT22;65111;50.536;19.204;2023-04-10T15:24:40;19.20;51.90
76305;DHT22;65111;50.536;19.204;2023-04-10T15:27:06;19.00;52.10
76305;DHT22;65111;50.536;19.204;2023-04-10T15:29:41;18.50;52.90
76305;DHT22;65111;50.536;19.204;2023-04-10T15:32:07;17.40;55.30
76305;DHT22;65111;50.536;19.204;2023-04-10T15:34:33;16.50;57.10
76305;DHT22;65111;50.536;19.204;2023-04-10T15:37:00;15.60;60.10
76305;DHT22;65111;50.536;19.204;2023-04-10T15:39:26;15.10;63.10
76305;DHT22;65111;50.536;19.204;2023-04-10T15:41:52;14.50;65.40
76305;DHT22;65111;50.536;19.204;2023-04-10T15:44:18;14.20;66.70
76305;DHT22;65111;50.536;19.204;2023-04-10T15:46:44;13.80;68.10
76305;DHT22;65111;50.536;19.204;2023-04-10T15:49:12;13.50;80.40
76305;DHT22;65111;50.536;19.204;2023-04-10T15:51:38;13.00;83.70
76305;DHT22;65111;50.536;19.204;2023-04-10T15:54:04;12.50;86.60
76305;DHT22;65111;50.536;19.204;2023-04-10T15:56:31;12.10;88.30